Time;durP1;ratioP1;P1;durP2;ratioP2;P2;SDS_P1;SDS_P2;PMS_P1;PMS_P2;Temp;Humidity;BMP_temperature;BMP_pressure;BME280_temperature;BME280_humidity;BME280_pressure;Samples;Min_cycle;Max_cycle;Signal;HPM_P1;HPM_P2
2022/05/05 00:01:37;;;;;;;17.67;10.30;;;12.80;99.90;;;;;;4952775;28;20453;-72
2022/05/05 00:04:03;;;;;;;10.40;9.37;;;12.80;99.90;;;;;;4954649;28;20451;-72
2022/05/05 00:06:29;;;;;;;11.37;10.40;;;12.90;99.90;;;;;;4953453;28;20464;-72
2022/05/05 00:08:54;;;;;;;11.30;10.20;;;13.10;99.90;;;;;;4951928;28;20721;-72
2022/05/05 00:14:27;;;;;;;11.43;10.43;;;12.80;99.90;;;;;;4925747;29;20260;-72
2022/05/05 00:16:57;;;;;;;11.87;10.97;;;12.80;99.90;;;;;;4929765;29;20453;-72
2022/05/05 00:19:23;;;;;;;11.80;10.60;;;12.70;99.90;;;;;;4937004;28;20545;-72
2022/05/05 00:21:49;;;;;;;11.73;10.63;;;12.80;99.90;;;;;;4953971;28;20444;-72
2022/05/05 00:24:16;;;;;;;11.27;10.40;;;12.80;99.90;;;;;;4953309;28;20471;-72
2022/05/05 00:26:42;;;;;;;11.13;10.23;;;12.80;99.90;;;;;;4953087;28;20216;-72
2022/05/05 00:29:07;;;;;;;12.13;10.93;;;12.90;99.90;;;;;;4949915;28;20476;-72
2022/05/05 00:31:33;;;;;;;12.27;11.17;;;12.90;99.90;;;;;;4953786;28;20185;-72
2022/05/05 00:33:58;;;;;;;11.20;10.23;;;12.80;99.90;;;;;;4952641;28;20551;-72
2022/05/05 00:36:24;;;;;;;13.00;11.90;;;12.90;99.90;;;;;;4952139;28;20287;-72
2022/05/05 00:38:50;;;;;;;12.50;11.50;;;12.90;99.90;;;;;;4951821;28;20729;-72
2022/05/05 00:41:15;;;;;;;11.60;10.60;;;12.80;99.90;;;;;;4951520;28;20624;-72
2022/05/05 00:43:41;;;;;;;12.97;12.07;;;12.80;99.90;;;;;;4953526;28;20199;-72
2022/05/05 00:46:06;;;;;;;12.23;11.20;;;12.60;99.90;;;;;;4952564;28;20663;-72
2022/05/05 00:48:32;;;;;;;11.87;10.97;;;12.60;99.90;;;;;;4951468;28;20627;-72
2022/05/05 00:50:57;;;;;;;12.60;11.50;;;12.60;99.90;;;;;;4952889;28;20268;-72
2022/05/05 00:53:24;;;;;;;11.97;10.83;;;12.40;99.90;;;;;;4951893;28;20596;-72
2022/05/05 00:55:54;;;;;;;11.77;10.77;;;12.30;99.90;;;;;;4941172;28;20185;-72
2022/05/05 00:58:20;;;;;;;10.33;9.40;;;12.30;99.90;;;;;;4953104;28;20472;-72
2022/05/05 01:00:45;;;;;;;11.47;10.50;;;12.20;99.90;;;;;;4944419;28;20471;-72
2022/05/05 01:03:13;;;;;;;13.03;12.00;;;12.10;99.90;;;;;;4951446;28;20187;-72
2022/05/05 01:05:39;;;;;;;11.70;10.70;;;11.90;99.90;;;;;;4951843;28;20638;-72
2022/05/05 01:08:05;;;;;;;12.40;10.20;;;11.90;99.90;;;;;;4953032;28;20471;-72
2022/05/05 01:10:32;;;;;;;12.50;11.30;;;12.00;99.90;;;;;;4948030;28;20432;-72
2022/05/05 01:13:01;;;;;;;12.13;11.03;;;12.00;99.90;;;;;;4953166;28;20513;-72
2022/05/05 01:15:28;;;;;;;11.93;10.97;;;12.00;99.90;;;;;;4952423;28;20437;-72
2022/05/05 01:17:53;;;;;;;12.83;11.60;;;12.00;99.90;;;;;;4951434;28;20500;-73
2022/05/05 01:20:22;;;;;;;11.83;10.83;;;12.00;99.90;;;;;;4952353;28;20491;-72
2022/05/05 01:22:49;;;;;;;14.23;12.87;;;11.90;99.90;;;;;;4955526;28;20181;-72
2022/05/05 01:28:10;;;;;;;11.00;10.00;;;11.90;99.90;;;;;;4951666;28;21052;-72
2022/05/05 01:30:43;;;;;;;12.10;11.20;;;11.50;99.90;;;;;;4952255;28;20436;-72
2022/05/05 01:33:17;;;;;;;10.73;9.80;;;11.90;99.90;;;;;;4952390;28;21619;-72
2022/05/05 01:35:44;;;;;;;11.70;10.77;;;11.80;99.90;;;;;;4950391;28;20443;-72
2022/05/05 01:38:12;;;;;;;13.10;11.80;;;11.80;99.90;;;;;;4951934;28;20474;-73
2022/05/05 01:40:39;;;;;;;15.50;11.10;;;11.30;99.90;;;;;;4953814;28;20440;-73
2022/05/05 01:43:06;;;;;;;12.93;11.83;;;11.60;99.90;;;;;;4941060;28;20512;-72
2022/05/05 01:45:32;;;;;;;12.03;11.03;;;11.60;99.90;;;;;;4952151;28;20483;-73
2022/05/05 01:47:57;;;;;;;13.37;12.13;;;11.70;99.90;;;;;;4951699;28;20476;-72
2022/05/05 01:50:24;;;;;;;12.77;11.53;;;11.70;99.90;;;;;;4956350;28;20187;-72
2022/05/05 01:52:50;;;;;;;11.90;10.90;;;11.80;99.90;;;;;;4954439;28;20278;-73
2022/05/05 01:55:15;;;;;;;11.93;10.90;;;11.80;99.90;;;;;;4955331;28;20440;-73
2022/05/05 01:57:41;;;;;;;11.40;10.30;;;11.80;99.90;;;;;;4958725;28;20271;-72
2022/05/05 02:00:07;;;;;;;12.03;10.93;;;11.80;99.90;;;;;;4954396;28;20184;-72
2022/05/05 02:02:32;;;;;;;10.93;9.93;;;11.80;99.90;;;;;;4952015;28;20181;-72
2022/05/05 02:04:58;;;;;;;11.60;10.60;;;11.80;99.90;;;;;;4955754;28;20444;-72
2022/05/05 02:07:23;;;;;;;11.57;10.67;;;11.80;99.90;;;;;;4955607;28;20200;-72
2022/05/05 02:09:49;;;;;;;12.20;11.03;;;11.90;99.90;;;;;;4954142;28;21036;-72
2022/05/05 02:12:15;;;;;;;11.13;10.23;;;11.80;99.90;;;;;;4955820;28;20674;-72
2022/05/05 02:14:40;;;;;;;11.23;10.33;;;11.70;99.90;;;;;;4955261;28;20176;-72
2022/05/05 02:17:06;;;;;;;12.47;11.40;;;11.70;99.90;;;;;;4955443;28;20453;-72
2022/05/05 02:19:32;;;;;;;11.63;10.57;;;11.70;99.90;;;;;;4953816;28;20253;-72
2022/05/05 02:21:58;;;;;;;11.10;10.10;;;11.80;99.90;;;;;;4954374;28;20187;-73
2022/05/05 02:24:23;;;;;;;10.83;9.93;;;11.70;99.90;;;;;;4954947;28;20257;-73
2022/05/05 02:26:49;;;;;;;11.70;10.70;;;11.70;99.90;;;;;;4955443;28;20213;-72
2022/05/05 02:29:14;;;;;;;12.27;11.07;;;11.70;99.90;;;;;;4954975;28;20230;-72
2022/05/05 02:31:40;;;;;;;12.70;11.60;;;11.80;99.90;;;;;;4956158;28;20651;-72
2022/05/05 02:34:08;;;;;;;12.67;11.40;;;11.80;99.90;;;;;;4956608;28;20213;-72
2022/05/05 02:39:19;;;;;;;13.40;12.20;;;11.80;99.90;;;;;;4955404;28;20463;-72
2022/05/05 02:41:44;;;;;;;11.53;10.63;;;11.80;99.90;;;;;;4954958;28;20439;-72
2022/05/05 02:44:10;;;;;;;12.07;10.97;;;11.90;99.90;;;;;;4955131;28;20184;-72
2022/05/05 02:46:36;;;;;;;12.30;11.30;;;11.90;99.90;;;;;;4937512;28;20687;-72
2022/05/05 02:49:01;;;;;;;11.43;10.33;;;11.90;99.90;;;;;;4953755;28;20244;-72
2022/05/05 02:51:27;;;;;;;10.77;9.87;;;11.90;99.90;;;;;;4954392;28;20616;-72
2022/05/05 02:56:37;;;;;;;12.07;10.97;;;11.90;99.90;;;;;;4952634;28;20595;-72
2022/05/05 02:59:02;;;;;;;13.10;11.83;;;11.80;99.90;;;;;;4954220;28;20456;-72
2022/05/05 03:01:28;;;;;;;12.60;11.53;;;11.80;99.90;;;;;;4952827;28;20185;-72
2022/05/05 03:03:53;;;;;;;12.00;10.90;;;11.80;99.90;;;;;;4954128;28;20192;-72
2022/05/05 03:06:20;;;;;;;11.33;10.33;;;11.70;99.90;;;;;;4955676;28;20185;-72
2022/05/05 03:08:45;;;;;;;10.77;9.80;;;11.60;99.90;;;;;;4954521;28;20200;-72
2022/05/05 03:11:11;;;;;;;10.10;9.30;;;11.60;99.90;;;;;;4952514;28;20448;-72
2022/05/05 03:13:37;;;;;;;11.20;10.20;;;11.60;99.90;;;;;;4956455;28;20184;-72
2022/05/05 03:16:03;;;;;;;10.87;9.77;;;11.30;99.90;;;;;;4953901;28;20178;-72
2022/05/05 03:18:29;;;;;;;11.20;10.30;;;11.50;99.90;;;;;;4953589;28;20456;-72
2022/05/05 03:20:55;;;;;;;11.83;10.73;;;11.90;99.90;;;;;;4953922;28;20941;-72
2022/05/05 03:23:20;;;;;;;10.20;9.30;;;11.60;99.90;;;;;;4953146;28;20268;-72
2022/05/05 03:25:46;;;;;;;11.17;10.07;;;11.60;99.90;;;;;;4954345;28;20193;-72
2022/05/05 03:28:11;;;;;;;11.87;10.97;;;11.60;99.90;;;;;;4953870;28;20220;-72
2022/05/05 03:30:40;;;;;;;10.90;9.90;;;11.60;99.90;;;;;;4953626;28;20579;-72
2022/05/05 03:33:06;;;;;;;10.70;9.90;;;11.60;99.90;;;;;;4951997;28;20440;-72
2022/05/05 03:35:32;;;;;;;12.43;11.20;;;11.60;99.90;;;;;;4954190;28;20787;-72
2022/05/05 03:37:57;;;;;;;11.00;10.10;;;11.60;99.90;;;;;;4954221;28;20303;-72
2022/05/05 03:40:23;;;;;;;15.57;14.17;;;11.50;99.90;;;;;;4953835;28;20263;-72
2022/05/05 03:42:48;;;;;;;13.30;11.90;;;11.50;99.90;;;;;;4953991;28;20220;-72
2022/05/05 03:45:14;;;;;;;13.10;12.00;;;11.50;99.90;;;;;;4956779;28;20568;-72
2022/05/05 03:47:39;;;;;;;12.17;11.17;;;11.60;99.90;;;;;;4953143;28;20221;-72
2022/05/05 03:50:05;;;;;;;12.53;11.33;;;11.60;99.90;;;;;;4953282;28;20185;-72
2022/05/05 03:52:31;;;;;;;12.70;11.53;;;11.60;99.90;;;;;;4953824;28;20552;-72
2022/05/05 03:54:56;;;;;;;13.30;12.13;;;11.60;99.90;;;;;;4954022;28;20445;-72
2022/05/05 03:57:22;;;;;;;14.03;12.57;;;11.60;99.90;;;;;;4954631;28;20185;-72
2022/05/05 03:59:47;;;;;;;12.80;11.70;;;11.60;99.90;;;;;;4953152;28;20227;-72
2022/05/05 04:02:13;;;;;;;15.67;11.67;;;11.70;99.90;;;;;;4953132;28;20186;-72
2022/05/05 04:04:39;;;;;;;12.97;11.83;;;11.80;99.90;;;;;;4953520;28;20185;-72
2022/05/05 04:07:04;;;;;;;12.80;11.70;;;11.80;99.90;;;;;;4957010;28;20208;-72
2022/05/05 04:09:29;;;;;;;13.90;12.57;;;11.80;99.90;;;;;;4954499;28;20208;-72
2022/05/05 04:11:55;;;;;;;12.37;11.27;;;11.80;99.90;;;;;;4946323;28;20189;-72
2022/05/05 04:14:20;;;;;;;12.50;11.50;;;11.90;99.90;;;;;;4954237;28;20235;-72
2022/05/05 04:16:46;;;;;;;15.23;12.50;;;12.00;99.90;;;;;;4946787;29;20319;-72
2022/05/05 04:19:12;;;;;;;13.60;12.30;;;12.00;99.90;;;;;;4946011;28;20705;-72
2022/05/05 04:21:37;;;;;;;14.90;13.40;;;12.00;99.90;;;;;;4953921;28;20194;-72
2022/05/05 04:24:03;;;;;;;13.20;12.10;;;12.00;99.90;;;;;;4947222;29;20303;-72
2022/05/05 04:26:29;;;;;;;13.97;12.53;;;12.00;99.90;;;;;;4957429;28;20188;-72
2022/05/05 04:28:58;;;;;;;14.10;12.90;;;12.10;99.90;;;;;;4953831;28;20836;-72
2022/05/05 04:31:28;;;;;;;12.77;11.47;;;12.00;99.90;;;;;;4954599;28;20906;-72
2022/05/05 04:33:54;;;;;;;12.70;11.57;;;12.00;99.90;;;;;;4954526;29;20440;-72
2022/05/05 04:36:19;;;;;;;11.37;10.37;;;12.00;99.90;;;;;;4954372;29;20421;-72
2022/05/05 04:38:45;;;;;;;12.93;11.67;;;12.10;99.90;;;;;;4953130;28;20200;-72
2022/05/05 04:41:10;;;;;;;12.97;11.87;;;12.30;99.90;;;;;;4950944;29;20188;-72
2022/05/05 04:43:36;;;;;;;12.47;11.40;;;12.30;99.90;;;;;;4957465;28;20226;-72
2022/05/05 04:46:02;;;;;;;12.70;11.47;;;12.30;99.90;;;;;;4951212;28;20178;-72
2022/05/05 04:48:28;;;;;;;11.73;10.67;;;12.40;99.90;;;;;;4944720;28;20480;-72
2022/05/05 04:50:53;;;;;;;13.70;10.77;;;12.40;99.90;;;;;;4948735;28;20813;-72
2022/05/05 04:53:19;;;;;;;12.40;11.27;;;12.40;99.90;;;;;;4939192;29;20169;-72
2022/05/05 04:55:44;;;;;;;13.07;11.87;;;12.40;99.90;;;;;;4945621;28;20273;-72
2022/05/05 04:58:10;;;;;;;12.30;11.30;;;12.50;99.90;;;;;;4952596;28;20207;-72
2022/05/05 05:00:36;;;;;;;11.83;10.93;;;12.50;99.90;;;;;;4957545;28;20210;-72
2022/05/05 05:03:02;;;;;;;12.27;11.27;;;12.30;99.90;;;;;;4951661;28;20176;-72
2022/05/05 05:05:27;;;;;;;11.73;10.83;;;12.30;99.90;;;;;;4936708;28;20551;-72
2022/05/05 05:07:53;;;;;;;12.27;10.93;;;12.40;99.90;;;;;;4951847;28;20642;-72
2022/05/05 05:10:18;;;;;;;14.13;12.93;;;12.40;99.90;;;;;;4950693;28;20264;-72
2022/05/05 05:12:44;;;;;;;12.53;11.37;;;12.40;99.90;;;;;;4950431;29;20192;-72
2022/05/05 05:15:10;;;;;;;12.10;11.10;;;12.50;99.90;;;;;;4950517;28;20632;-72
2022/05/05 05:17:36;;;;;;;12.23;11.13;;;12.60;99.90;;;;;;4950091;28;20474;-72
2022/05/05 05:20:03;;;;;;;13.63;12.20;;;12.60;99.90;;;;;;4950991;29;20535;-72
2022/05/05 05:22:29;;;;;;;13.57;12.33;;;12.70;99.90;;;;;;4950820;28;20177;-72
2022/05/05 05:24:54;;;;;;;13.63;12.43;;;12.70;99.90;;;;;;4951139;28;21025;-72
2022/05/05 05:27:20;;;;;;;12.67;11.57;;;12.70;99.90;;;;;;4952112;28;20220;-72
2022/05/05 05:29:45;;;;;;;14.07;12.87;;;12.80;99.90;;;;;;4952439;28;20243;-72
2022/05/05 05:32:11;;;;;;;14.60;13.17;;;12.70;99.90;;;;;;4950659;29;20199;-71
2022/05/05 05:34:36;;;;;;;12.90;11.83;;;12.90;99.90;;;;;;4949546;29;20189;-72
2022/05/05 05:37:03;;;;;;;15.20;14.00;;;12.90;99.90;;;;;;4951199;29;20692;-73
2022/05/05 05:39:30;;;;;;;13.80;12.37;;;12.90;99.90;;;;;;4952901;28;20227;-73
2022/05/05 05:41:56;;;;;;;14.13;12.73;;;13.00;99.90;;;;;;4949481;28;20447;-73
2022/05/05 05:44:21;;;;;;;13.13;12.13;;;13.00;99.90;;;;;;4949502;28;20441;-69
2022/05/05 05:46:47;;;;;;;14.17;12.77;;;13.00;99.90;;;;;;4951526;28;20588;-72
2022/05/05 05:49:12;;;;;;;13.73;12.27;;;13.10;99.90;;;;;;4953414;28;20196;-71
2022/05/05 05:51:38;;;;;;;12.43;11.43;;;13.10;99.90;;;;;;4953827;29;20267;-71
2022/05/05 05:54:04;;;;;;;13.03;11.73;;;13.20;99.90;;;;;;4936556;29;20639;-71
2022/05/05 05:56:29;;;;;;;13.67;12.50;;;13.20;99.90;;;;;;4953685;29;20173;-71
2022/05/05 05:58:55;;;;;;;14.70;13.20;;;13.20;99.90;;;;;;4953476;28;20504;-71
2022/05/05 06:03:53;;;;;;;14.37;12.97;;;13.30;99.90;;;;;;4953869;29;20199;-70
2022/05/05 06:04:06;;;;;;;14.63;13.33;;;13.30;99.90;;;;;;4924819;28;21226;-71
2022/05/05 06:06:31;;;;;;;16.10;14.63;;;13.30;99.90;;;;;;4928084;28;20431;-71
2022/05/05 06:08:57;;;;;;;13.97;12.70;;;13.30;99.90;;;;;;4948564;28;20208;-71
2022/05/05 06:11:23;;;;;;;15.10;13.70;;;13.30;99.90;;;;;;4949736;29;20702;-71
2022/05/05 06:13:49;;;;;;;13.37;12.37;;;13.40;99.90;;;;;;4948255;28;20519;-71
2022/05/05 06:16:14;;;;;;;13.70;12.50;;;13.60;99.90;;;;;;4950133;29;20496;-71
2022/05/05 06:18:40;;;;;;;15.20;13.70;;;13.80;99.90;;;;;;4948809;28;20236;-71
2022/05/05 06:21:06;;;;;;;13.23;12.13;;;13.50;99.90;;;;;;4950208;29;20209;-71
2022/05/05 06:23:32;;;;;;;13.70;12.60;;;13.90;99.90;;;;;;4950229;29;20176;-72
2022/05/05 06:25:57;;;;;;;12.20;11.27;;;14.10;99.90;;;;;;4950141;28;20503;-72
2022/05/05 06:28:23;;;;;;;12.80;11.70;;;14.20;99.90;;;;;;4949770;28;20566;-71
2022/05/05 06:30:49;;;;;;;13.27;12.17;;;14.30;99.90;;;;;;4951231;29;20180;-72
2022/05/05 06:33:14;;;;;;;13.80;12.70;;;14.40;99.90;;;;;;4953904;28;20232;-71
2022/05/05 06:35:40;;;;;;;15.67;14.37;;;14.60;99.90;;;;;;4956798;28;20181;-71
2022/05/05 06:38:05;;;;;;;12.20;11.30;;;14.70;99.90;;;;;;4956646;28;20745;-72
2022/05/05 06:40:31;;;;;;;12.13;10.90;;;14.80;99.90;;;;;;4956569;29;20181;-72
2022/05/05 06:42:56;;;;;;;13.13;12.03;;;14.90;99.90;;;;;;4956630;28;20257;-72
2022/05/05 06:45:25;;;;;;;11.70;10.70;;;14.90;99.90;;;;;;4956729;29;20235;-71
2022/05/05 06:47:51;;;;;;;12.63;11.63;;;15.00;99.90;;;;;;4956443;28;20236;-72
2022/05/05 06:50:21;;;;;;;11.93;10.93;;;15.00;99.90;;;;;;4956350;28;20504;-71
2022/05/05 06:52:47;;;;;;;10.83;9.83;;;15.10;99.90;;;;;;4956300;28;20503;-71
2022/05/05 06:55:13;;;;;;;12.37;11.47;;;15.10;99.90;;;;;;4956600;28;20417;-71
2022/05/05 06:57:39;;;;;;;10.77;9.87;;;15.00;99.90;;;;;;4956400;28;20503;-71
2022/05/05 07:00:05;;;;;;;11.17;10.20;;;15.00;99.90;;;;;;4948874;29;20184;-72
2022/05/05 07:02:30;;;;;;;11.90;10.60;;;15.00;99.90;;;;;;4956055;28;20181;-71
2022/05/05 07:07:51;;;;;;;11.53;9.87;;;15.30;99.90;;;;;;4929599;28;20263;-71
2022/05/05 07:13:01;;;;;;;12.13;11.17;;;15.20;99.90;;;;;;4951811;28;20535;-71
2022/05/05 07:15:27;;;;;;;13.60;12.43;;;15.20;99.90;;;;;;4950222;28;20605;-71
2022/05/05 07:17:52;;;;;;;11.70;10.80;;;15.20;99.90;;;;;;4954693;28;20263;-71
2022/05/05 07:20:18;;;;;;;13.07;11.80;;;15.10;99.90;;;;;;4952964;28;20185;-72
2022/05/05 07:22:43;;;;;;;12.00;11.10;;;15.10;99.90;;;;;;4952635;28;20188;-71
2022/05/05 07:25:09;;;;;;;12.33;11.23;;;15.20;99.90;;;;;;4952953;28;20181;-72
2022/05/05 07:27:35;;;;;;;12.47;11.53;;;15.30;99.90;;;;;;4952644;28;20220;-72
2022/05/05 07:30:00;;;;;;;13.23;11.77;;;15.40;99.90;;;;;;4950244;28;20221;-71
2022/05/05 07:32:26;;;;;;;12.50;11.43;;;15.40;99.90;;;;;;4949892;28;20208;-71
2022/05/05 07:34:51;;;;;;;11.33;10.33;;;15.50;99.90;;;;;;4949195;28;20184;-71
2022/05/05 07:37:17;;;;;;;12.40;11.40;;;15.40;99.90;;;;;;4952002;28;20184;-72
2022/05/05 07:39:42;;;;;;;11.97;10.97;;;15.50;99.90;;;;;;4953743;28;20200;-72
2022/05/05 07:42:08;;;;;;;12.40;11.20;;;15.70;99.90;;;;;;4952672;28;20180;-71
2022/05/05 07:44:34;;;;;;;13.30;10.77;;;15.60;99.90;;;;;;4949618;28;20265;-71
2022/05/05 07:47:00;;;;;;;11.43;10.40;;;15.80;99.90;;;;;;4950548;28;20208;-71
2022/05/05 07:49:25;;;;;;;13.23;11.87;;;16.00;99.90;;;;;;4948465;28;20212;-71
2022/05/05 07:51:52;;;;;;;12.30;11.10;;;15.90;99.90;;;;;;4949652;28;20192;-72
2022/05/05 07:57:04;;;;;;;13.73;11.97;;;15.90;99.90;;;;;;4949795;29;20497;-72
2022/05/05 07:59:30;;;;;;;12.83;11.53;;;15.90;99.90;;;;;;4949387;28;20482;-71
2022/05/05 08:01:57;;;;;;;12.73;11.73;;;15.80;99.90;;;;;;4946512;28;20463;-72
2022/05/05 08:04:23;;;;;;;11.93;11.03;;;15.90;99.90;;;;;;4950421;28;20658;-71
2022/05/05 08:06:48;;;;;;;13.07;11.77;;;16.00;99.90;;;;;;4951754;29;20511;-71
2022/05/05 08:09:14;;;;;;;13.17;11.80;;;16.00;99.90;;;;;;4950826;28;20483;-71
2022/05/05 08:11:39;;;;;;;13.40;12.03;;;15.90;99.90;;;;;;4950432;29;20666;-71
2022/05/05 08:14:05;;;;;;;13.47;12.37;;;15.80;99.90;;;;;;4952016;28;20181;-71
2022/05/05 08:16:31;;;;;;;12.60;11.40;;;15.80;99.90;;;;;;4951300;28;20554;-71
2022/05/05 08:18:57;;;;;;;12.50;11.30;;;15.90;99.90;;;;;;4951097;28;20467;-71
2022/05/05 08:21:22;;;;;;;13.20;11.90;;;16.00;99.90;;;;;;4952594;28;20436;-71
2022/05/05 08:23:48;;;;;;;13.63;12.43;;;16.00;99.90;;;;;;4951482;28;20189;-71
2022/05/05 08:28:58;;;;;;;12.70;11.60;;;16.10;99.90;;;;;;4949964;28;20247;-70
2022/05/05 08:31:23;;;;;;;15.57;14.17;;;16.40;99.90;;;;;;4954260;28;20472;-72
2022/05/05 08:33:49;;;;;;;14.20;13.00;;;16.60;99.90;;;;;;4949526;28;20711;-72
2022/05/05 08:36:15;;;;;;;15.07;13.80;;;16.50;99.90;;;;;;4946967;28;20556;-72
2022/05/05 08:38:41;;;;;;;20.03;18.33;;;16.40;99.90;;;;;;4947934;28;20308;-71
2022/05/05 08:41:11;;;;;;;16.47;13.83;;;16.30;99.90;;;;;;4949234;28;20628;-72
2022/05/05 08:43:37;;;;;;;15.37;13.93;;;16.30;99.90;;;;;;4948978;28;20452;-71
2022/05/05 08:46:03;;;;;;;16.53;14.83;;;16.20;99.90;;;;;;4949707;28;20496;-72
2022/05/05 08:48:34;;;;;;;15.50;14.17;;;16.00;99.90;;;;;;4946607;28;20239;-72
2022/05/05 08:51:01;;;;;;;14.87;13.33;;;16.20;99.90;;;;;;4949989;28;20444;-72
2022/05/05 08:53:35;;;;;;;14.67;13.27;;;16.50;99.90;;;;;;4948887;28;20445;-71
2022/05/05 08:56:02;;;;;;;15.83;12.10;;;16.70;99.90;;;;;;4950786;28;20453;-71
2022/05/05 08:58:29;;;;;;;15.70;14.37;;;16.70;99.90;;;;;;4952401;28;20473;-71
2022/05/05 09:00:55;;;;;;;13.43;12.43;;;17.10;99.90;;;;;;4950252;28;20489;-71
2022/05/05 09:03:21;;;;;;;14.57;13.27;;;17.20;99.90;;;;;;4947718;29;20963;-71
2022/05/05 09:05:49;;;;;;;14.77;13.30;;;17.20;99.90;;;;;;4950215;28;20451;-72
2022/05/05 09:08:24;;;;;;;15.20;13.90;;;17.10;99.90;;;;;;4951837;28;20486;-72
2022/05/05 09:10:51;;;;;;;17.37;15.87;;;17.20;99.90;;;;;;4952734;29;20458;-71
2022/05/05 09:13:24;;;;;;;16.10;14.57;;;16.80;99.90;;;;;;4950770;28;20437;-72
2022/05/05 09:15:49;;;;;;;18.47;16.50;;;16.80;99.90;;;;;;4950386;28;20447;-72
2022/05/05 09:18:20;;;;;;;16.63;15.10;;;16.80;99.90;;;;;;4951897;28;20461;-72
2022/05/05 09:20:48;;;;;;;18.77;16.77;;;16.70;99.90;;;;;;4949488;28;20203;-72
2022/05/05 09:23:30;;;;;;;17.73;16.40;;;16.60;99.90;;;;;;4952162;28;21040;-71
2022/05/05 09:25:56;;;;;;;17.30;15.67;;;16.70;99.90;;;;;;4950448;28;20440;-72
2022/05/05 09:28:24;;;;;;;17.73;16.13;;;16.70;99.90;;;;;;4950469;28;20468;-72
2022/05/05 09:30:51;;;;;;;20.23;18.43;;;16.70;99.90;;;;;;4949973;28;20436;-72
2022/05/05 09:33:35;;;;;;;20.43;18.53;;;16.60;99.90;;;;;;4951069;28;20447;-73
2022/05/05 09:36:06;;;;;;;20.93;19.03;;;16.50;99.90;;;;;;4951426;28;20954;-72
2022/05/05 09:38:59;;;;;;;19.50;17.67;;;16.60;99.90;;;;;;4948186;28;20468;-72
2022/05/05 09:41:28;;;;;;;22.93;19.30;;;16.50;99.90;;;;;;4953569;28;20519;-72
2022/05/05 09:44:15;;;;;;;21.03;19.20;;;16.40;99.90;;;;;;4952092;29;20506;-72
2022/05/05 09:46:43;;;;;;;26.00;23.70;;;16.10;99.90;;;;;;4950867;28;20586;-72
2022/05/05 09:49:12;;;;;;;25.90;23.57;;;16.10;99.90;;;;;;4949635;28;20460;-72
2022/05/05 09:57:39;;;;;;;25.27;22.97;;;16.10;99.90;;;;;;4932984;28;20856;-73
2022/05/05 09:57:41;;;;;;;24.67;22.03;;;16.00;99.90;;;;;;4945208;28;20450;-72
2022/05/05 10:00:19;;;;;;;24.77;22.67;;;16.10;99.90;;;;;;4947017;28;20536;-72
2022/05/05 10:05:32;;;;;;;24.83;22.77;;;16.20;99.90;;;;;;4950241;29;20443;-72
2022/05/05 10:07:57;;;;;;;24.20;22.00;;;16.10;99.90;;;;;;4948585;28;20478;-72
2022/05/05 10:10:24;;;;;;;23.87;21.70;;;16.10;99.90;;;;;;4954443;28;20432;-72
2022/05/05 10:12:51;;;;;;;22.83;20.97;;;16.20;99.90;;;;;;4954961;29;20192;-72
2022/05/05 10:15:17;;;;;;;24.57;22.50;;;16.30;99.90;;;;;;4955854;28;20448;-72
2022/05/05 10:17:44;;;;;;;24.87;22.77;;;16.40;99.90;;;;;;4953824;28;20998;-72
2022/05/05 10:20:12;;;;;;;24.80;22.80;;;16.50;99.90;;;;;;4936201;28;20443;-72
2022/05/05 10:22:50;;;;;;;24.07;22.07;;;16.40;99.90;;;;;;4953867;28;20868;-72
2022/05/05 10:25:22;;;;;;;27.40;25.00;;;16.30;99.90;;;;;;4956043;28;20435;-72
2022/05/05 10:27:48;;;;;;;25.03;22.53;;;16.50;99.90;;;;;;4952623;28;20471;-73
2022/05/05 10:30:29;;;;;;;24.93;22.93;;;16.50;99.90;;;;;;4951886;28;20850;-73
2022/05/05 10:32:56;;;;;;;26.40;24.10;;;16.50;99.90;;;;;;4953813;29;20208;-70
2022/05/05 10:35:23;;;;;;;25.43;23.43;;;16.70;99.90;;;;;;4953675;28;20445;-69
2022/05/05 10:37:49;;;;;;;26.30;23.60;;;16.90;99.90;;;;;;4953367;28;20543;-69
2022/05/05 10:40:15;;;;;;;25.23;23.07;;;16.90;99.90;;;;;;4952318;28;20452;-69
2022/05/05 10:42:45;;;;;;;25.27;23.07;;;17.10;99.90;;;;;;4952188;28;20445;-69
2022/05/05 10:45:18;;;;;;;25.10;22.80;;;17.30;99.90;;;;;;4955077;28;20216;-69
2022/05/05 10:47:50;;;;;;;25.37;23.27;;;17.30;99.90;;;;;;4956472;28;20811;-69
2022/05/05 10:50:36;;;;;;;25.30;22.73;;;17.20;99.90;;;;;;4956183;28;20409;-69
2022/05/05 10:53:02;;;;;;;25.27;23.07;;;17.10;99.90;;;;;;4956353;29;20423;-69
2022/05/05 10:55:40;;;;;;;23.43;21.17;;;17.10;99.90;;;;;;4956383;28;20448;-69
2022/05/05 10:58:09;;;;;;;23.57;21.43;;;17.20;99.90;;;;;;4956236;28;20436;-69
2022/05/05 11:00:42;;;;;;;25.93;23.60;;;17.20;99.90;;;;;;4955936;28;20431;-69
2022/05/05 11:03:09;;;;;;;22.13;20.10;;;17.20;99.90;;;;;;4956431;28;20799;-69
2022/05/05 11:05:38;;;;;;;25.97;23.87;;;17.20;99.90;;;;;;4956271;28;20452;-69
2022/05/05 11:08:09;;;;;;;25.53;23.33;;;17.20;99.90;;;;;;4956157;28;20464;-69
2022/05/05 11:10:41;;;;;;;25.97;23.57;;;17.10;99.90;;;;;;4955986;28;20511;-69
2022/05/05 11:13:08;;;;;;;25.00;22.70;;;17.10;99.90;;;;;;4956222;29;20846;-69
2022/05/05 11:21:33;;;;;;;25.23;23.17;;;17.20;99.90;;;;;;4956004;29;20478;-69
2022/05/05 11:24:00;;;;;;;27.57;25.17;;;17.20;99.90;;;;;;4955879;29;20463;-69
2022/05/05 11:26:26;;;;;;;29.17;26.77;;;16.70;99.90;;;;;;4955794;28;20420;-69
2022/05/05 11:28:53;;;;;;;29.30;26.73;;;16.70;99.90;;;;;;4955361;28;20475;-69
2022/05/05 11:31:20;;;;;;;30.57;27.80;;;16.60;99.90;;;;;;4955735;28;20420;-69
2022/05/05 11:33:57;;;;;;;28.83;26.43;;;16.60;99.90;;;;;;4950065;28;20449;-69
2022/05/05 11:36:29;;;;;;;27.47;25.00;;;16.50;99.90;;;;;;4950360;28;20530;-69
2022/05/05 11:38:56;;;;;;;27.57;25.27;;;16.40;99.90;;;;;;4950051;29;20982;-69
2022/05/05 11:41:23;;;;;;;29.97;27.17;;;16.20;99.90;;;;;;4945308;28;20452;-69
2022/05/05 11:46:33;;;;;;;27.03;24.73;;;16.40;99.90;;;;;;4943202;28;20451;-69
2022/05/05 11:48:59;;;;;;;29.50;26.77;;;16.30;99.90;;;;;;4946525;28;20456;-69
2022/05/05 11:51:34;;;;;;;27.03;24.33;;;16.40;99.90;;;;;;4948530;28;20652;-69
2022/05/05 11:54:05;;;;;;;27.90;25.57;;;16.60;99.90;;;;;;4949952;29;20172;-69
2022/05/05 11:56:33;;;;;;;26.80;24.30;;;16.70;99.90;;;;;;4953416;28;20998;-69
2022/05/05 12:02:21;;;;;;;27.60;25.00;;;16.70;99.90;;;;;;4943895;29;20805;-69
2022/05/05 12:04:51;;;;;;;27.17;24.50;;;16.80;99.90;;;;;;4951202;28;20455;-69
2022/05/05 12:07:19;;;;;;;27.83;25.03;;;16.70;99.90;;;;;;4945776;28;20950;-69
2022/05/05 12:09:50;;;;;;;25.77;23.50;;;16.70;99.90;;;;;;4946188;29;20459;-69
2022/05/05 12:12:18;;;;;;;26.50;24.23;;;16.50;99.90;;;;;;4947974;28;20943;-69
2022/05/05 12:14:47;;;;;;;27.90;25.30;;;16.50;99.90;;;;;;4948329;29;20448;-69
2022/05/05 12:17:18;;;;;;;27.60;25.20;;;16.40;99.90;;;;;;4949284;28;21219;-69
2022/05/05 12:19:52;;;;;;;27.90;25.60;;;16.60;99.90;;;;;;4948561;28;20514;-69
2022/05/05 12:22:38;;;;;;;28.27;25.67;;;17.00;99.90;;;;;;4948616;28;20502;-69
2022/05/05 12:25:14;;;;;;;28.53;26.03;;;17.30;99.90;;;;;;4942090;29;20452;-69
2022/05/05 12:28:00;;;;;;;28.27;25.57;;;17.40;99.90;;;;;;4951498;28;20475;-69
2022/05/05 12:30:44;;;;;;;28.57;25.90;;;17.60;99.90;;;;;;4930697;28;20480;-69
2022/05/05 12:33:12;;;;;;;29.20;26.13;;;17.60;99.90;;;;;;4948183;29;20451;-69
2022/05/05 12:35:41;;;;;;;30.07;27.23;;;17.60;99.90;;;;;;4946572;28;20451;-68
2022/05/05 12:38:09;;;;;;;32.53;29.53;;;17.80;99.90;;;;;;4947107;28;20463;-69
2022/05/05 12:40:40;;;;;;;31.13;28.30;;;17.80;99.90;;;;;;4948778;28;20452;-69
2022/05/05 12:43:13;;;;;;;31.07;27.97;;;18.00;99.90;;;;;;4947251;29;20445;-69
2022/05/05 12:45:40;;;;;;;30.63;27.83;;;18.10;99.90;;;;;;4947246;28;20555;-69
2022/05/05 12:48:08;;;;;;;31.17;28.20;;;18.30;99.90;;;;;;4947295;29;20890;-69
2022/05/05 12:50:40;;;;;;;29.70;26.70;;;18.20;99.90;;;;;;4947911;28;20452;-69
2022/05/05 13:01:30;;;;;;;32.80;29.70;;;18.30;99.90;;;;;;4947067;28;20535;-69
2022/05/05 13:03:57;;;;;;;30.50;27.77;;;17.80;99.90;;;;;;4947685;28;20456;-68
2022/05/05 13:06:24;;;;;;;31.73;28.63;;;17.70;99.90;;;;;;4948698;29;20609;-69
2022/05/05 13:08:51;;;;;;;28.93;25.90;;;17.70;99.90;;;;;;4947841;28;20895;-69
2022/05/05 13:11:17;;;;;;;28.50;25.90;;;17.80;99.90;;;;;;4945040;29;20942;-68
2022/05/05 13:13:43;;;;;;;30.67;27.83;;;17.90;99.90;;;;;;4944773;28;20449;-69
2022/05/05 13:16:09;;;;;;;28.60;25.53;;;18.60;99.90;;;;;;4947269;28;20447;-70
2022/05/05 13:18:35;;;;;;;29.07;26.47;;;19.10;99.90;;;;;;4947030;28;20848;-69